Phillipstown, Illinois
Current Conditions -  °F | °C
As of 6:58 PM on Monday 26 Jan 2015 (Local Time) from KCUL Reporting Station
Overcast Overcast  
Wind Chill: 27°   Ceiling: 3800
Heat Index: 32°   Visibility: 7mi
Dew Point: 30°   Wind: 5mph
Humidity: 93%   Direction: 140°SE
Pressure: 29.96"   Gusts: NA
Location:  38.1681°N, 88.0517°W
Report Text: KCUL 270058Z AUTO 14004KT 7SM BKN038 OVC044 00/M01 A2996 RMK AO2
Loading
Personal Weather Stations






























Interactive Weather Map New forecast layout! Learn more

10-Day Weather Forecast

Advertisements
Track Severe Weather on mobile